sensor_id;sensor_type;location;lat;lon;timestamp;pressure;altitude;pressure_sealevel;temperature;humidity
29215;BME280;16252;49.816;7.964;2023-04-26T00:00:16;100182.97;;;8.40;47.78
29215;BME280;16252;49.816;7.964;2023-04-26T00:02:42;100180.09;;;8.29;47.94
29215;BME280;16252;49.816;7.964;2023-04-26T00:05:07;100171.34;;;8.27;47.95
29215;BME280;16252;49.816;7.964;2023-04-26T00:07:33;100198.66;;;8.44;48.04
29215;BME280;16252;49.816;7.964;2023-04-26T00:09:58;100165.66;;;8.18;48.09
29215;BME280;16252;49.816;7.964;2023-04-26T00:12:24;100195.81;;;8.33;48.10
29215;BME280;16252;49.816;7.964;2023-04-26T00:14:49;100187.06;;;8.31;48.15
29215;BME280;16252;49.816;7.964;2023-04-26T00:17:14;100191.97;;;8.37;48.14
29215;BME280;16252;49.816;7.964;2023-04-26T00:19:40;100196.53;;;8.35;48.26
29215;BME280;16252;49.816;7.964;2023-04-26T00:22:05;100145.31;;;8.03;48.25
29215;BME280;16252;49.816;7.964;2023-04-26T00:24:31;100213.13;;;8.40;48.35
29215;BME280;16252;49.816;7.964;2023-04-26T00:26:57;100190.97;;;8.25;48.26
29215;BME280;16252;49.816;7.964;2023-04-26T00:29:22;100182.41;;;8.20;48.30
29215;BME280;16252;49.816;7.964;2023-04-26T00:31:47;100202.00;;;8.34;48.15
29215;BME280;16252;49.816;7.964;2023-04-26T00:34:13;100191.72;;;8.28;48.03
29215;BME280;16252;49.816;7.964;2023-04-26T00:36:38;100168.53;;;8.15;48.17
29215;BME280;16252;49.816;7.964;2023-04-26T00:39:03;100188.19;;;8.27;48.18
29215;BME280;16252;49.816;7.964;2023-04-26T00:41:28;100192.03;;;8.23;48.10
29215;BME280;16252;49.816;7.964;2023-04-26T00:43:54;100174.41;;;8.06;48.23
29215;BME280;16252;49.816;7.964;2023-04-26T00:46:19;100198.78;;;8.14;48.30
29215;BME280;16252;49.816;7.964;2023-04-26T00:48:45;100217.06;;;8.20;48.27
29215;BME280;16252;49.816;7.964;2023-04-26T00:51:11;100163.88;;;7.90;48.33
29215;BME280;16252;49.816;7.964;2023-04-26T00:53:37;100192.31;;;8.04;48.46
29215;BME280;16252;49.816;7.964;2023-04-26T00:56:05;100182.63;;;8.03;48.79
29215;BME280;16252;49.816;7.964;2023-04-26T00:58:31;100167.19;;;7.79;48.46
29215;BME280;16252;49.816;7.964;2023-04-26T01:00:57;100104.25;;;7.50;48.51
29215;BME280;16252;49.816;7.964;2023-04-26T01:03:22;100197.72;;;8.02;48.64
29215;BME280;16252;49.816;7.964;2023-04-26T01:05:48;100179.19;;;7.87;48.64
29215;BME280;16252;49.816;7.964;2023-04-26T01:08:13;100205.84;;;8.01;48.66
29215;BME280;16252;49.816;7.964;2023-04-26T01:10:41;100196.31;;;7.97;48.72
29215;BME280;16252;49.816;7.964;2023-04-26T01:13:06;100205.06;;;7.99;48.68
29215;BME280;16252;49.816;7.964;2023-04-26T01:15:32;100190.53;;;7.90;48.62
29215;BME280;16252;49.816;7.964;2023-04-26T01:17:58;100171.88;;;7.76;48.63
29215;BME280;16252;49.816;7.964;2023-04-26T01:20:23;100201.34;;;7.87;48.66
29215;BME280;16252;49.816;7.964;2023-04-26T01:22:50;100139.53;;;7.53;48.64
29215;BME280;16252;49.816;7.964;2023-04-26T01:25:16;100203.84;;;7.90;48.80
29215;BME280;16252;49.816;7.964;2023-04-26T01:27:42;100179.84;;;7.76;48.96
29215;BME280;16252;49.816;7.964;2023-04-26T01:30:08;100163.50;;;7.68;48.89
29215;BME280;16252;49.816;7.964;2023-04-26T01:32:34;100203.84;;;7.90;48.79
29215;BME280;16252;49.816;7.964;2023-04-26T01:34:59;100154.06;;;7.62;48.94
29215;BME280;16252;49.816;7.964;2023-04-26T01:37:24;100191.84;;;7.83;48.97
29215;BME280;16252;49.816;7.964;2023-04-26T01:39:50;100193.56;;;7.84;48.87
29215;BME280;16252;49.816;7.964;2023-04-26T01:42:16;100184.06;;;7.80;48.78
29215;BME280;16252;49.816;7.964;2023-04-26T01:44:41;100152.44;;;7.59;48.82
29215;BME280;16252;49.816;7.964;2023-04-26T01:47:06;100184.34;;;7.75;48.80
29215;BME280;16252;49.816;7.964;2023-04-26T01:49:32;100176.34;;;7.75;48.94
29215;BME280;16252;49.816;7.964;2023-04-26T01:51:58;100167.09;;;7.67;48.80
29215;BME280;16252;49.816;7.964;2023-04-26T01:54:23;100179.09;;;7.74;48.85
29215;BME280;16252;49.816;7.964;2023-04-26T01:56:48;100187.94;;;7.74;48.77
29215;BME280;16252;49.816;7.964;2023-04-26T01:59:13;100192.91;;;7.80;48.79
29215;BME280;16252;49.816;7.964;2023-04-26T02:01:41;100213.44;;;7.93;49.04
29215;BME280;16252;49.816;7.964;2023-04-26T02:04:07;100212.88;;;7.88;48.84
29215;BME280;16252;49.816;7.964;2023-04-26T02:06:32;100134.00;;;7.42;48.96
29215;BME280;16252;49.816;7.964;2023-04-26T02:08:58;100183.00;;;7.68;49.09
29215;BME280;16252;49.816;7.964;2023-04-26T02:11:23;100163.00;;;7.61;48.54
29215;BME280;16252;49.816;7.964;2023-04-26T02:13:48;100170.63;;;7.53;48.40
29215;BME280;16252;49.816;7.964;2023-04-26T02:16:14;100170.63;;;7.53;48.48
29215;BME280;16252;49.816;7.964;2023-04-26T02:18:40;100147.22;;;7.29;48.39
29215;BME280;16252;49.816;7.964;2023-04-26T02:21:10;100186.28;;;7.43;48.91
29215;BME280;16252;49.816;7.964;2023-04-26T02:23:36;100208.34;;;7.59;47.83
29215;BME280;16252;49.816;7.964;2023-04-26T02:26:01;100208.03;;;7.35;48.45
29215;BME280;16252;49.816;7.964;2023-04-26T02:28:27;100167.63;;;6.99;48.67
29215;BME280;16252;49.816;7.964;2023-04-26T02:30:52;100142.03;;;6.82;48.90
29215;BME280;16252;49.816;7.964;2023-04-26T02:33:17;100178.47;;;6.95;49.17
29215;BME280;16252;49.816;7.964;2023-04-26T02:35:43;100175.22;;;6.90;49.27
29215;BME280;16252;49.816;7.964;2023-04-26T02:38:08;100169.13;;;6.88;49.20
29215;BME280;16252;49.816;7.964;2023-04-26T02:40:33;100145.81;;;6.78;49.31
29215;BME280;16252;49.816;7.964;2023-04-26T02:42:59;100197.66;;;7.01;49.47
29215;BME280;16252;49.816;7.964;2023-04-26T02:45:24;100160.91;;;6.77;49.47
29215;BME280;16252;49.816;7.964;2023-04-26T02:47:49;100187.59;;;6.91;49.39
29215;BME280;16252;49.816;7.964;2023-04-26T02:50:14;100174.81;;;6.82;49.44
29215;BME280;16252;49.816;7.964;2023-04-26T02:52:40;100202.22;;;6.99;49.53
29215;BME280;16252;49.816;7.964;2023-04-26T02:55:05;100175.78;;;6.81;49.55
29215;BME280;16252;49.816;7.964;2023-04-26T02:57:31;100195.19;;;6.98;49.67
29215;BME280;16252;49.816;7.964;2023-04-26T02:59:57;100188.69;;;6.87;49.60
29215;BME280;16252;49.816;7.964;2023-04-26T03:02:22;100158.72;;;6.69;49.67
29215;BME280;16252;49.816;7.964;2023-04-26T03:04:47;100190.91;;;6.95;49.54
29215;BME280;16252;49.816;7.964;2023-04-26T03:07:13;100194.59;;;6.92;49.80
29215;BME280;16252;49.816;7.964;2023-04-26T03:09:39;100184.16;;;6.89;49.71
29215;BME280;16252;49.816;7.964;2023-04-26T03:12:05;100114.66;;;6.49;49.82
29215;BME280;16252;49.816;7.964;2023-04-26T03:14:31;100188.50;;;6.90;49.62
29215;BME280;16252;49.816;7.964;2023-04-26T03:16:57;100177.09;;;6.88;49.55
29215;BME280;16252;49.816;7.964;2023-04-26T03:19:22;100136.06;;;6.62;49.57
29215;BME280;16252;49.816;7.964;2023-04-26T03:21:48;100181.09;;;6.81;49.63
29215;BME280;16252;49.816;7.964;2023-04-26T03:24:13;100185.25;;;6.85;49.69
29215;BME280;16252;49.816;7.964;2023-04-26T03:26:38;100177.97;;;6.73;49.43
29215;BME280;16252;49.816;7.964;2023-04-26T03:29:04;100194.19;;;6.84;49.16
29215;BME280;16252;49.816;7.964;2023-04-26T03:31:29;100193.59;;;6.79;49.30
29215;BME280;16252;49.816;7.964;2023-04-26T03:33:54;100163.75;;;6.58;49.13
29215;BME280;16252;49.816;7.964;2023-04-26T03:36:20;100165.56;;;6.58;49.09
29215;BME280;16252;49.816;7.964;2023-04-26T03:38:45;100169.53;;;6.50;49.20
29215;BME280;16252;49.816;7.964;2023-04-26T03:41:11;100150.00;;;6.36;49.14
29215;BME280;16252;49.816;7.964;2023-04-26T03:43:36;100170.66;;;6.46;49.19
29215;BME280;16252;49.816;7.964;2023-04-26T03:46:03;100181.19;;;6.48;49.15
29215;BME280;16252;49.816;7.964;2023-04-26T03:48:28;100169.34;;;6.38;49.24
29215;BME280;16252;49.816;7.964;2023-04-26T03:50:53;100174.53;;;6.41;49.36
29215;BME280;16252;49.816;7.964;2023-04-26T03:53:19;100163.81;;;6.26;49.37
29215;BME280;16252;49.816;7.964;2023-04-26T03:55:44;100170.66;;;6.31;49.43
29215;BME280;16252;49.816;7.964;2023-04-26T03:58:10;100170.75;;;6.29;49.42
29215;BME280;16252;49.816;7.964;2023-04-26T04:00:39;100156.25;;;6.19;49.87
29215;BME280;16252;49.816;7.964;2023-04-26T04:03:06;100181.31;;;6.31;49.59
29215;BME280;16252;49.816;7.964;2023-04-26T04:05:32;100182.66;;;6.22;49.68
29215;BME280;16252;49.816;7.964;2023-04-26T04:07:57;100095.94;;;5.72;49.62
29215;BME280;16252;49.816;7.964;2023-04-26T04:10:22;100164.66;;;6.11;49.61
29215;BME280;16252;49.816;7.964;2023-04-26T04:12:49;100163.03;;;6.08;49.66
29215;BME280;16252;49.816;7.964;2023-04-26T04:15:15;100081.22;;;5.50;49.52
29215;BME280;16252;49.816;7.964;2023-04-26T04:17:40;100148.72;;;5.95;49.65
29215;BME280;16252;49.816;7.964;2023-04-26T04:20:06;100177.41;;;6.04;49.52
29215;BME280;16252;49.816;7.964;2023-04-26T04:22:31;100168.28;;;5.93;49.63
29215;BME280;16252;49.816;7.964;2023-04-26T04:24:57;100198.47;;;6.07;49.91
29215;BME280;16252;49.816;7.964;2023-04-26T04:27:23;100166.47;;;5.77;49.91
29215;BME280;16252;49.816;7.964;2023-04-26T04:29:49;100171.44;;;5.83;49.91
29215;BME280;16252;49.816;7.964;2023-04-26T04:32:14;100182.84;;;5.85;49.95
29215;BME280;16252;49.816;7.964;2023-04-26T04:34:41;100202.50;;;5.99;50.15
29215;BME280;16252;49.816;7.964;2023-04-26T04:37:06;100208.59;;;6.01;50.21
29215;BME280;16252;49.816;7.964;2023-04-26T04:39:31;100184.47;;;5.88;50.23
29215;BME280;16252;49.816;7.964;2023-04-26T04:41:57;100197.44;;;5.94;50.33
29215;BME280;16252;49.816;7.964;2023-04-26T04:44:22;100186.19;;;5.89;50.33
29215;BME280;16252;49.816;7.964;2023-04-26T04:46:48;100203.53;;;5.96;50.47
29215;BME280;16252;49.816;7.964;2023-04-26T04:49:13;100224.56;;;6.17;50.43
29215;BME280;16252;49.816;7.964;2023-04-26T04:51:39;100205.94;;;6.01;50.58
29215;BME280;16252;49.816;7.964;2023-04-26T04:54:10;100201.13;;;6.07;50.88
29215;BME280;16252;49.816;7.964;2023-04-26T04:56:35;100212.53;;;6.10;50.55
29215;BME280;16252;49.816;7.964;2023-04-26T04:59:01;100213.06;;;6.16;50.31
29215;BME280;16252;49.816;7.964;2023-04-26T05:01:26;100242.50;;;6.29;50.35
29215;BME280;16252;49.816;7.964;2023-04-26T05:03:51;100226.91;;;6.23;50.57
29215;BME280;16252;49.816;7.964;2023-04-26T05:06:17;100228.59;;;6.24;50.64
29215;BME280;16252;49.816;7.964;2023-04-26T05:08:42;100215.63;;;6.18;50.61
29215;BME280;16252;49.816;7.964;2023-04-26T05:11:07;100232.81;;;6.28;50.59
29215;BME280;16252;49.816;7.964;2023-04-26T05:13:32;100187.84;;;6.07;50.68
29215;BME280;16252;49.816;7.964;2023-04-26T05:15:58;100207.66;;;6.18;50.76
29215;BME280;16252;49.816;7.964;2023-04-26T05:18:23;100207.41;;;6.22;50.71
29215;BME280;16252;49.816;7.964;2023-04-26T05:20:48;100204.50;;;6.27;50.72
29215;BME280;16252;49.816;7.964;2023-04-26T05:23:13;100222.69;;;6.35;50.95
29215;BME280;16252;49.816;7.964;2023-04-26T05:25:39;100211.81;;;6.39;50.85
29215;BME280;16252;49.816;7.964;2023-04-26T05:28:04;100233.00;;;6.57;50.93
29215;BME280;16252;49.816;7.964;2023-04-26T05:30:30;100223.38;;;6.54;50.90
29215;BME280;16252;49.816;7.964;2023-04-26T05:32:55;100205.03;;;6.49;51.09
29215;BME280;16252;49.816;7.964;2023-04-26T05:35:22;100246.03;;;6.77;51.29
29215;BME280;16252;49.816;7.964;2023-04-26T05:37:47;100236.66;;;6.70;51.07
29215;BME280;16252;49.816;7.964;2023-04-26T05:40:12;100257.19;;;6.84;51.04
29215;BME280;16252;49.816;7.964;2023-04-26T05:42:37;100235.38;;;6.77;51.22
29215;BME280;16252;49.816;7.964;2023-04-26T05:45:03;100223.38;;;6.70;51.20
29215;BME280;16252;49.816;7.964;2023-04-26T05:47:29;100251.69;;;6.87;51.29
29215;BME280;16252;49.816;7.964;2023-04-26T05:49:54;100255.53;;;6.97;51.18
29215;BME280;16252;49.816;7.964;2023-04-26T05:52:19;100237.34;;;6.89;51.24
29215;BME280;16252;49.816;7.964;2023-04-26T05:54:45;100260.41;;;7.05;51.51
29215;BME280;16252;49.816;7.964;2023-04-26T05:57:10;100232.81;;;6.91;51.41
29215;BME280;16252;49.816;7.964;2023-04-26T05:59:36;100265.19;;;7.14;51.62
29215;BME280;16252;49.816;7.964;2023-04-26T06:02:01;100266.38;;;7.24;51.53
29215;BME280;16252;49.816;7.964;2023-04-26T06:04:26;100245.44;;;7.18;51.67
29215;BME280;16252;49.816;7.964;2023-04-26T06:06:52;100261.28;;;7.35;51.75
29215;BME280;16252;49.816;7.964;2023-04-26T06:09:17;100284.94;;;7.56;51.70
29215;BME280;16252;49.816;7.964;2023-04-26T06:11:42;100267.31;;;7.53;51.74
29215;BME280;16252;49.816;7.964;2023-04-26T06:14:08;100259.72;;;7.62;51.66
29215;BME280;16252;49.816;7.964;2023-04-26T06:16:33;100261.19;;;7.67;51.78
29215;BME280;16252;49.816;7.964;2023-04-26T06:18:58;100277.94;;;7.84;52.00
29215;BME280;16252;49.816;7.964;2023-04-26T06:21:23;100245.78;;;7.72;52.17
29215;BME280;16252;49.816;7.964;2023-04-26T06:23:49;100263.78;;;7.97;52.21
29215;BME280;16252;49.816;7.964;2023-04-26T06:26:14;100274.16;;;8.02;52.32
29215;BME280;16252;49.816;7.964;2023-04-26T06:28:39;100267.31;;;8.12;52.33
29215;BME280;16252;49.816;7.964;2023-04-26T06:31:04;100254.53;;;8.17;52.28
29215;BME280;16252;49.816;7.964;2023-04-26T06:33:30;100279.72;;;8.42;52.40
29215;BME280;16252;49.816;7.964;2023-04-26T06:35:56;100256.94;;;8.36;52.29
29215;BME280;16252;49.816;7.964;2023-04-26T06:38:21;100261.31;;;8.52;52.31
29215;BME280;16252;49.816;7.964;2023-04-26T06:40:46;100264.81;;;8.66;52.39
29215;BME280;16252;49.816;7.964;2023-04-26T06:43:11;100233.50;;;8.56;52.24
29215;BME280;16252;49.816;7.964;2023-04-26T06:45:37;100252.50;;;8.78;52.23
29215;BME280;16252;49.816;7.964;2023-04-26T06:48:02;100254.66;;;8.86;52.23
29215;BME280;16252;49.816;7.964;2023-04-26T06:50:29;100271.06;;;8.94;52.20
29215;BME280;16252;49.816;7.964;2023-04-26T06:52:54;100248.09;;;8.92;51.95
29215;BME280;16252;49.816;7.964;2023-04-26T06:55:20;100245.09;;;8.96;52.08
29215;BME280;16252;49.816;7.964;2023-04-26T06:57:45;100236.16;;;8.97;52.02
29215;BME280;16252;49.816;7.964;2023-04-26T07:00:11;100266.34;;;9.25;52.05
29215;BME280;16252;49.816;7.964;2023-04-26T07:02:37;100232.75;;;9.08;52.03
29215;BME280;16252;49.816;7.964;2023-04-26T07:05:03;100271.31;;;9.44;51.85
29215;BME280;16252;49.816;7.964;2023-04-26T07:07:28;100265.53;;;9.37;51.92
29215;BME280;16252;49.816;7.964;2023-04-26T07:09:53;100271.63;;;9.52;51.80
29215;BME280;16252;49.816;7.964;2023-04-26T07:12:19;100252.53;;;9.45;51.78
29215;BME280;16252;49.816;7.964;2023-04-26T07:14:45;100272.63;;;9.64;51.97
29215;BME280;16252;49.816;7.964;2023-04-26T07:17:10;100286.47;;;9.83;52.10
29215;BME280;16252;49.816;7.964;2023-04-26T07:19:35;100248.91;;;9.72;52.02
29215;BME280;16252;49.816;7.964;2023-04-26T07:22:01;100256.53;;;9.91;51.83
29215;BME280;16252;49.816;7.964;2023-04-26T07:24:26;100247.22;;;9.96;51.65
29215;BME280;16252;49.816;7.964;2023-04-26T07:26:52;100225.94;;;9.95;51.62
29215;BME280;16252;49.816;7.964;2023-04-26T07:29:17;100241.66;;;10.12;51.41
29215;BME280;16252;49.816;7.964;2023-04-26T07:31:45;100254.28;;;10.36;51.42
29215;BME280;16252;49.816;7.964;2023-04-26T07:34:11;100242.94;;;10.32;50.91
29215;BME280;16252;49.816;7.964;2023-04-26T07:36:37;100253.56;;;10.58;50.49
29215;BME280;16252;49.816;7.964;2023-04-26T07:39:02;100256.34;;;10.69;50.22
29215;BME280;16252;49.816;7.964;2023-04-26T07:41:29;100260.69;;;10.83;50.36
29215;BME280;16252;49.816;7.964;2023-04-26T07:43:54;100242.59;;;10.87;50.43
29215;BME280;16252;49.816;7.964;2023-04-26T07:46:20;100272.53;;;11.16;50.16
29215;BME280;16252;49.816;7.964;2023-04-26T07:48:45;100200.28;;;10.92;49.94
29215;BME280;16252;49.816;7.964;2023-04-26T07:51:11;100266.72;;;11.46;49.86
29215;BME280;16252;49.816;7.964;2023-04-26T07:53:37;100238.06;;;11.35;49.79
29215;BME280;16252;49.816;7.964;2023-04-26T07:56:04;100250.19;;;11.52;49.90
29215;BME280;16252;49.816;7.964;2023-04-26T07:58:30;100221.06;;;11.47;49.27
29215;BME280;16252;49.816;7.964;2023-04-26T08:00:57;100270.88;;;11.85;49.49
29215;BME280;16252;49.816;7.964;2023-04-26T08:03:22;100262.47;;;11.90;49.25
29215;BME280;16252;49.816;7.964;2023-04-26T08:05:48;100245.44;;;11.91;49.20
29215;BME280;16252;49.816;7.964;2023-04-26T08:08:13;100241.91;;;12.02;48.94
29215;BME280;16252;49.816;7.964;2023-04-26T08:10:39;100276.19;;;12.32;48.71
29215;BME280;16252;49.816;7.964;2023-04-26T08:13:05;100228.84;;;12.20;48.81
29215;BME280;16252;49.816;7.964;2023-04-26T08:15:31;100220.81;;;12.20;48.61
29215;BME280;16252;49.816;7.964;2023-04-26T08:17:56;100252.63;;;12.47;48.50
29215;BME280;16252;49.816;7.964;2023-04-26T08:20:22;100255.66;;;12.65;48.71
29215;BME280;16252;49.816;7.964;2023-04-26T08:22:47;100240.78;;;12.72;48.64
29215;BME280;16252;49.816;7.964;2023-04-26T08:25:14;100270.84;;;13.09;48.66
29215;BME280;16252;49.816;7.964;2023-04-26T08:27:39;100266.75;;;13.26;48.08
29215;BME280;16252;49.816;7.964;2023-04-26T08:30:05;100218.53;;;13.13;48.24
29215;BME280;16252;49.816;7.964;2023-04-26T08:32:31;100253.59;;;13.55;47.92
29215;BME280;16252;49.816;7.964;2023-04-26T08:34:58;100254.38;;;13.88;48.21
29215;BME280;16252;49.816;7.964;2023-04-26T08:37:23;100254.97;;;14.22;48.01
29215;BME280;16252;49.816;7.964;2023-04-26T08:39:48;100269.66;;;14.70;47.93
29215;BME280;16252;49.816;7.964;2023-04-26T08:42:15;100240.94;;;15.00;47.20
29215;BME280;16252;49.816;7.964;2023-04-26T08:44:42;100235.00;;;15.45;46.24
29215;BME280;16252;49.816;7.964;2023-04-26T08:47:19;100267.56;;;16.19;46.34
29215;BME280;16252;49.816;7.964;2023-04-26T08:49:50;100240.25;;;16.60;45.40
29215;BME280;16252;49.816;7.964;2023-04-26T08:52:18;100216.72;;;16.98;45.37
29215;BME280;16252;49.816;7.964;2023-04-26T08:54:48;100242.66;;;17.62;45.03
29215;BME280;16252;49.816;7.964;2023-04-26T08:57:14;100252.16;;;18.10;43.57
29215;BME280;16252;49.816;7.964;2023-04-26T08:59:41;100247.78;;;18.44;42.79
29215;BME280;16252;49.816;7.964;2023-04-26T09:02:09;100268.97;;;18.82;41.72
29215;BME280;16252;49.816;7.964;2023-04-26T09:04:35;100240.91;;;19.00;41.94
29215;BME280;16252;49.816;7.964;2023-04-26T09:07:03;100267.75;;;19.52;41.31
29215;BME280;16252;49.816;7.964;2023-04-26T09:09:40;100240.00;;;19.83;41.82
29215;BME280;16252;49.816;7.964;2023-04-26T09:12:06;100225.84;;;20.04;40.77
29215;BME280;16252;49.816;7.964;2023-04-26T09:14:32;100246.78;;;20.59;40.89
29215;BME280;16252;49.816;7.964;2023-04-26T09:16:58;100229.38;;;20.68;39.36
29215;BME280;16252;49.816;7.964;2023-04-26T09:19:40;100249.25;;;21.08;39.46
29215;BME280;16252;49.816;7.964;2023-04-26T09:22:08;100240.19;;;21.16;38.78
29215;BME280;16252;49.816;7.964;2023-04-26T09:24:49;100247.44;;;21.24;38.02
29215;BME280;16252;49.816;7.964;2023-04-26T09:27:16;100204.66;;;20.86;37.56
29215;BME280;16252;49.816;7.964;2023-04-26T09:30:08;100241.59;;;21.12;38.68
29215;BME280;16252;49.816;7.964;2023-04-26T09:33:00;100234.13;;;21.06;38.72
29215;BME280;16252;49.816;7.964;2023-04-26T09:38:05;100222.41;;;20.74;37.14
29215;BME280;16252;49.816;7.964;2023-04-26T09:40:44;100206.84;;;20.60;37.69
29215;BME280;16252;49.816;7.964;2023-04-26T09:43:13;100230.44;;;20.67;36.91
29215;BME280;16252;49.816;7.964;2023-04-26T09:45:43;100205.16;;;20.50;37.09
29215;BME280;16252;49.816;7.964;2023-04-26T09:48:25;100221.81;;;20.55;36.64
29215;BME280;16252;49.816;7.964;2023-04-26T09:50:53;100207.63;;;20.29;36.49
29215;BME280;16252;49.816;7.964;2023-04-26T09:53:34;100196.47;;;20.16;36.74
29215;BME280;16252;49.816;7.964;2023-04-26T09:58:33;100214.28;;;20.10;36.08
29215;BME280;16252;49.816;7.964;2023-04-26T10:00:59;100204.66;;;19.99;36.05
29215;BME280;16252;49.816;7.964;2023-04-26T10:03:25;100221.09;;;19.98;35.91
29215;BME280;16252;49.816;7.964;2023-04-26T10:05:51;100199.78;;;19.78;35.65
29215;BME280;16252;49.816;7.964;2023-04-26T10:08:17;100201.47;;;19.71;35.92
29215;BME280;16252;49.816;7.964;2023-04-26T10:10:44;100179.59;;;19.48;35.63
29215;BME280;16252;49.816;7.964;2023-04-26T10:13:10;100205.34;;;19.60;35.86
29215;BME280;16252;49.816;7.964;2023-04-26T10:15:35;100213.16;;;19.63;35.26
29215;BME280;16252;49.816;7.964;2023-04-26T10:18:01;100200.78;;;19.61;35.42
29215;BME280;16252;49.816;7.964;2023-04-26T10:20:27;100187.38;;;19.51;35.59
29215;BME280;16252;49.816;7.964;2023-04-26T10:22:55;100212.66;;;19.60;35.22
29215;BME280;16252;49.816;7.964;2023-04-26T10:25:39;100214.00;;;19.72;36.55
29215;BME280;16252;49.816;7.964;2023-04-26T10:28:06;100215.88;;;19.80;36.40
29215;BME280;16252;49.816;7.964;2023-04-26T10:30:32;100194.28;;;19.95;36.16
29215;BME280;16252;49.816;7.964;2023-04-26T10:35:24;100186.69;;;20.38;35.67
29215;BME280;16252;49.816;7.964;2023-04-26T10:40:35;100184.84;;;21.24;35.33
29215;BME280;16252;49.816;7.964;2023-04-26T10:45:41;100184.41;;;22.40;35.08
29215;BME280;16252;49.816;7.964;2023-04-26T10:53:23;100171.09;;;24.31;33.70
29215;BME280;16252;49.816;7.964;2023-04-26T10:55:48;100157.88;;;24.89;33.82
29215;BME280;16252;49.816;7.964;2023-04-26T11:01:07;100160.63;;;26.15;33.76
29215;BME280;16252;49.816;7.964;2023-04-26T11:03:37;100144.06;;;26.49;30.76
29215;BME280;16252;49.816;7.964;2023-04-26T11:06:06;100158.94;;;26.79;30.39
29215;BME280;16252;49.816;7.964;2023-04-26T11:08:33;100134.53;;;26.65;29.91
29215;BME280;16252;49.816;7.964;2023-04-26T11:13:47;100153.63;;;26.33;29.82
29215;BME280;16252;49.816;7.964;2023-04-26T11:16:13;100158.13;;;26.07;29.29
29215;BME280;16252;49.816;7.964;2023-04-26T11:18:41;100157.31;;;25.80;29.30
29215;BME280;16252;49.816;7.964;2023-04-26T11:21:07;100153.09;;;25.44;28.32
29215;BME280;16252;49.816;7.964;2023-04-26T11:23:32;100135.56;;;24.99;28.38
29215;BME280;16252;49.816;7.964;2023-04-26T11:25:59;100128.53;;;24.56;29.69
29215;BME280;16252;49.816;7.964;2023-04-26T11:28:26;100126.44;;;24.17;29.15
29215;BME280;16252;49.816;7.964;2023-04-26T11:30:52;100139.91;;;23.84;29.47
29215;BME280;16252;49.816;7.964;2023-04-26T11:33:20;100110.88;;;23.26;29.37
29215;BME280;16252;49.816;7.964;2023-04-26T11:35:48;100127.38;;;22.97;29.71
29215;BME280;16252;49.816;7.964;2023-04-26T11:38:13;100122.34;;;22.57;29.82
29215;BME280;16252;49.816;7.964;2023-04-26T11:40:39;100123.63;;;22.25;30.10
29215;BME280;16252;49.816;7.964;2023-04-26T11:43:06;100136.38;;;22.10;30.27
29215;BME280;16252;49.816;7.964;2023-04-26T11:45:33;100136.03;;;21.83;30.52
29215;BME280;16252;49.816;7.964;2023-04-26T11:48:03;100115.03;;;21.54;30.20
29215;BME280;16252;49.816;7.964;2023-04-26T11:50:33;100125.34;;;21.43;30.73
29215;BME280;16252;49.816;7.964;2023-04-26T11:53:03;100124.53;;;21.20;30.61
29215;BME280;16252;49.816;7.964;2023-04-26T11:55:30;100099.47;;;20.87;31.02
29215;BME280;16252;49.816;7.964;2023-04-26T11:57:59;100100.84;;;20.83;31.22
29215;BME280;16252;49.816;7.964;2023-04-26T12:00:25;100120.84;;;20.90;30.87
29215;BME280;16252;49.816;7.964;2023-04-26T12:02:51;100114.59;;;20.81;30.68
29215;BME280;16252;49.816;7.964;2023-04-26T12:07:50;100079.56;;;20.32;30.88
29215;BME280;16252;49.816;7.964;2023-04-26T12:10:17;100086.41;;;20.20;31.05
29215;BME280;16252;49.816;7.964;2023-04-26T12:12:47;100083.22;;;20.16;30.97
29215;BME280;16252;49.816;7.964;2023-04-26T12:15:13;100100.22;;;20.10;31.55
29215;BME280;16252;49.816;7.964;2023-04-26T12:17:39;100111.06;;;20.10;30.92
29215;BME280;16252;49.816;7.964;2023-04-26T12:20:11;100083.00;;;19.86;31.04
29215;BME280;16252;49.816;7.964;2023-04-26T12:22:37;100068.28;;;19.64;31.31
29215;BME280;16252;49.816;7.964;2023-04-26T12:25:05;100104.56;;;19.80;31.19
29215;BME280;16252;49.816;7.964;2023-04-26T12:27:31;100114.09;;;19.76;31.15
29215;BME280;16252;49.816;7.964;2023-04-26T12:29:56;100092.22;;;19.69;31.42
29215;BME280;16252;49.816;7.964;2023-04-26T12:32:21;100081.72;;;19.58;31.43
29215;BME280;16252;49.816;7.964;2023-04-26T12:34:47;100100.34;;;19.61;31.58
29215;BME280;16252;49.816;7.964;2023-04-26T12:37:12;100071.88;;;19.48;31.82
29215;BME280;16252;49.816;7.964;2023-04-26T12:39:38;100074.94;;;19.45;31.74
29215;BME280;16252;49.816;7.964;2023-04-26T12:42:03;100109.66;;;19.66;31.38
29215;BME280;16252;49.816;7.964;2023-04-26T12:44:28;100096.28;;;19.57;30.98
29215;BME280;16252;49.816;7.964;2023-04-26T12:46:54;100089.00;;;19.49;31.30
29215;BME280;16252;49.816;7.964;2023-04-26T12:49:19;100073.25;;;19.36;31.28
29215;BME280;16252;49.816;7.964;2023-04-26T12:51:44;100065.97;;;19.37;31.55
29215;BME280;16252;49.816;7.964;2023-04-26T12:54:10;100098.84;;;19.58;31.42
29215;BME280;16252;49.816;7.964;2023-04-26T12:56:35;100101.53;;;19.58;31.45
29215;BME280;16252;49.816;7.964;2023-04-26T12:59:04;100098.00;;;19.58;31.37
29215;BME280;16252;49.816;7.964;2023-04-26T13:01:30;100086.09;;;19.59;31.12
29215;BME280;16252;49.816;7.964;2023-04-26T13:03:55;100070.16;;;19.56;31.38
29215;BME280;16252;49.816;7.964;2023-04-26T13:06:23;100084.56;;;19.64;31.35
29215;BME280;16252;49.816;7.964;2023-04-26T13:08:48;100033.06;;;19.32;31.46
29215;BME280;16252;49.816;7.964;2023-04-26T13:11:14;100075.59;;;19.56;31.32
29215;BME280;16252;49.816;7.964;2023-04-26T13:13:40;100087.47;;;19.63;31.51
29215;BME280;16252;49.816;7.964;2023-04-26T13:16:06;100082.91;;;19.55;31.55